Lynn Center, Illinois
Current Conditions -  °F | °C
As of 4:16 AM on Saturday 25 Oct 2014 (Local Time) from KMLI Reporting Station
Moderate Fog Moderate Fog  
Wind Chill: 56°   Ceiling: 200
Heat Index: 56°   Visibility: 0.25mi
Dew Point: 55°   Wind: 6mph
Humidity: 97%   Direction: 270°W
Pressure: 29.94"   Gusts: NA
Location:  41.3°N, 90.36°W
Report Text: KMLI 250916Z AUTO 27005KT 1/4SM R09/1800V2200FT FG VV002 13/13 A2994 RMK AO2 T01330128
Loading
Personal Weather Stations






























Interactive Weather Map
Tropical Storm Tracking
New forecast layout! Learn more

10-Day Weather Forecast

Advertisements
Track Severe Weather on mobile